Terminal Aerodrome Forecast
Issued by NWS Bismarck, ND

Home | Current Version | Previous Version | Graphics & Text | Print | Product List | Glossary On
Versions: 1 2 3 4 5 6 7 8 9 10 11 12 13 14 15 16 17 18 19 20 21
000
FTUS43 KBIS 210800 AAA
TAFISN
TAF AMD
KISN 210830Z 2109/2206 VRB03KT 1/2SM FG SCT001 BKN005
     FM211400 36007KT 5SM BR SCT005 BKN030
     FM211900 36011KT P6SM BKN060=

USA.gov is the U.S. government's official web portal to all federal, state and local government web resources and services.